Date,TemperatureHighF,TemperatureAvgF,TemperatureLowF,DewpointHighF,DewpointAvgF,DewpointLowF,HumidityHigh,HumidityAvg,HumidityLow,PressureMaxIn,PressureMinIn,WindSpeedMaxMPH,WindSpeedAvgMPH,GustSpeedMaxMPH,PrecipitationSumIn
2013-1-1,62.3,53.1,41.2,34.5,25.5,12.3,76,39,18,29.92,29.78,19,4,19,0.00
2013-1-2,63.0,54.1,42.1,43.8,26.5,11.5,68,38,17,29.83,29.74,20,3,20,0.00
2013-1-3,65.2,52.2,41.4,46.0,30.7,17.0,61,45,23,29.86,29.75,9,1,9,0.00
2013-1-4,67.0,53.7,42.8,36.0,24.1,14.0,56,34,15,29.95,29.86,10,2,10,0.00
2013-1-5,59.8,50.7,40.9,45.4,33.8,17.6,75,54,25,29.99,29.86,6,1,6,0.00
2013-1-6,54.9,49.7,43.6,47.4,43.8,39.3,90,80,67,29.89,29.71,8,1,8,0.01
2013-1-7,60.1,49.9,40.0,43.9,38.1,32.6,88,66,37,29.83,29.70,8,1,8,0.00
2013-1-8,71.3,53.3,42.5,48.9,40.2,31.4,79,63,30,29.79,29.72,9,1,9,0.00
2013-1-9,61.0,52.3,45.0,54.4,46.0,37.2,91,79,64,29.81,29.70,6,1,6,0.00
2013-1-10,57.1,50.7,42.3,48.2,37.1,24.9,90,62,31,29.81,29.62,11,2,11,0.00
2013-1-11,56.2,46.6,37.1,34.3,26.5,21.2,67,46,28,29.89,29.76,13,2,13,0.00
2013-1-12,54.9,44.9,35.6,31.7,26.7,21.2,68,50,28,29.86,29.77,10,2,10,0.00
2013-1-13,47.0,45.8,44.1,31.9,18.9,10.9,61,36,24,29.83,29.76,16,7,18,0.00
2013-1-14,53.5,46.2,38.7,30.0,12.0,4.0,46,26,14,30.04,29.82,20,4,20,0.00
2013-1-15,58.1,47.8,37.1,40.5,24.7,7.4,61,42,20,30.14,30.02,8,2,8,0.00
2013-1-16,67.9,51.8,39.1,35.3,30.2,26.7,64,46,24,30.04,29.83,11,1,11,0.00
2013-1-17,75.6,56.0,44.6,40.5,31.3,16.2,54,41,11,29.86,29.75,14,2,14,0.00
2013-1-18,75.4,63.4,47.7,42.3,23.7,10.8,46,24,12,29.83,29.73,12,3,12,0.00
2013-1-19,79.0,64.6,49.9,31.2,18.2,11.5,34,18,7,29.85,29.75,21,5,21,0.00
2013-1-20,78.8,61.4,48.2,31.4,21.0,8.3,37,23,8,29.83,29.70,13,2,13,0.00
2013-1-21,80.6,65.4,48.4,27.6,17.4,10.1,34,16,4,29.78,29.67,22,4,22,0.00
2013-1-22,80.1,65.1,52.2,45.2,19.8,6.9,41,19,7,29.76,29.69,14,3,14,0.00
2013-1-23,77.2,65.7,55.4,48.6,29.6,13.3,78,31,13,29.79,29.67,14,3,14,0.02
2013-1-24,63.2,58.1,53.5,56.7,53.8,48.2,93,86,76,29.86,29.76,16,4,16,0.28
2013-1-25,63.9,60.1,57.2,56.2,54.0,51.0,92,81,68,29.81,29.65,12,2,12,0.19
2013-1-26,62.6,57.2,54.9,59.1,54.5,51.7,95,91,81,29.67,29.57,8,2,8,0.04
2013-1-27,61.7,55.1,46.8,53.6,43.7,28.9,92,68,38,29.72,29.60,11,3,11,0.00
2013-1-28,61.4,51.8,43.2,41.3,32.4,26.3,64,48,33,29.87,29.72,10,3,10,0.00
2013-1-29,59.8,50.0,41.8,45.9,37.9,31.5,86,64,40,29.90,29.82,10,2,10,0.00
2013-1-30,62.5,51.6,42.1,47.4,41.3,36.6,85,69,50,30.01,29.89,6,1,6,0.00
2013-1-31,72.0,55.1,43.9,50.0,43.2,37.5,81,66,39,29.93,29.78,7,1,7,0.00